SKBO/BOG METAR and TAF weather

Enter ICAO airport designator
Station Type Date Time Source
SKBO METAR 2019/06/19 07:00 UTC NOAA

SKBO 190700Z 07004KT 9999 FEW020 SCT200 12/10 A3033 NOSIG


Station Type Date Time Source
SKBO Decoded METAR 2019/06/19 07:00 UTC NOAA

Bogota / Eldorado, Colombia (SKBO) 04-43N 074-09W 2548M
Jun 19, 2019 - 03:00 AM EDT / 2019.06.19 0700 UTC
Wind: from the ENE (070 degrees) at 5 MPH (4 KT):0
Visibility: greater than 7 mile(s):0
Sky conditions: partly cloudy
Temperature: 53 F (12 C)
Dew Point: 50 F (10 C)
Relative Humidity: 87%
Pressure (altimeter): 30.33 in. Hg (1027 hPa)
ob: SKBO 190700Z 07004KT 9999 FEW020 SCT200 12/10 A3033 NOSIG
cycle: 7

Station Type Date Time Source
SKBO TAF 2019/06/19 06:48 UTC NOAA

TAF TAF SKBO 190430Z 1906/2006 VRB02KT 9999 SCT020
BECMG 1912/1914 16014KT
TEMPO 1917/1919 VCSH BKN015 TX21/1918Z TN10/1911Z

Example: see airport list